sensor_id;sensor_type;location;lat;lon;timestamp;pressure;altitude;pressure_sealevel;temperature;humidity
11343;BME280;5726;42.160;24.746;2023-05-07T00:01:12;99831.31;;;17.24;96.37
11343;BME280;5726;42.160;24.746;2023-05-07T00:03:37;99826.88;;;17.03;97.32
11343;BME280;5726;42.160;24.746;2023-05-07T00:06:04;99836.53;;;17.37;94.36
11343;BME280;5726;42.160;24.746;2023-05-07T00:08:29;99835.06;;;17.40;94.26
11343;BME280;5726;42.160;24.746;2023-05-07T00:10:55;99832.16;;;16.99;96.68
11343;BME280;5726;42.160;24.746;2023-05-07T00:13:23;99824.31;;;17.23;96.81
11343;BME280;5726;42.160;24.746;2023-05-07T00:15:48;99829.53;;;17.28;95.59
11343;BME280;5726;42.160;24.746;2023-05-07T00:18:14;99824.94;;;17.28;94.65
11343;BME280;5726;42.160;24.746;2023-05-07T00:20:39;99826.03;;;17.36;94.69
11343;BME280;5726;42.160;24.746;2023-05-07T00:23:05;99824.66;;;17.50;92.50
11343;BME280;5726;42.160;24.746;2023-05-07T00:25:30;99824.09;;;17.36;93.69
11343;BME280;5726;42.160;24.746;2023-05-07T00:27:56;99821.09;;;17.29;94.39
11343;BME280;5726;42.160;24.746;2023-05-07T00:30:22;99827.31;;;17.30;94.98
11343;BME280;5726;42.160;24.746;2023-05-07T00:32:48;99820.16;;;17.25;94.50
11343;BME280;5726;42.160;24.746;2023-05-07T00:35:14;99819.06;;;17.01;96.38
11343;BME280;5726;42.160;24.746;2023-05-07T00:37:39;99816.63;;;17.25;94.92
11343;BME280;5726;42.160;24.746;2023-05-07T00:40:06;99817.31;;;16.97;95.96
11343;BME280;5726;42.160;24.746;2023-05-07T00:42:32;99822.75;;;16.97;96.12
11343;BME280;5726;42.160;24.746;2023-05-07T00:44:58;99827.59;;;17.37;93.89
11343;BME280;5726;42.160;24.746;2023-05-07T00:47:24;99816.41;;;17.38;94.97
11343;BME280;5726;42.160;24.746;2023-05-07T00:49:50;99829.06;;;17.18;96.19
11343;BME280;5726;42.160;24.746;2023-05-07T00:52:17;99823.47;;;17.31;96.02
11343;BME280;5726;42.160;24.746;2023-05-07T00:54:44;99826.94;;;17.40;95.58
11343;BME280;5726;42.160;24.746;2023-05-07T00:57:10;99827.00;;;17.23;97.43
11343;BME280;5726;42.160;24.746;2023-05-07T00:59:36;99833.88;;;17.21;97.04
11343;BME280;5726;42.160;24.746;2023-05-07T01:02:02;99828.41;;;17.37;95.93
11343;BME280;5726;42.160;24.746;2023-05-07T01:04:27;99834.50;;;17.26;96.93
11343;BME280;5726;42.160;24.746;2023-05-07T01:06:56;99827.78;;;17.23;97.46
11343;BME280;5726;42.160;24.746;2023-05-07T01:09:24;99827.78;;;17.23;96.74
11343;BME280;5726;42.160;24.746;2023-05-07T01:11:50;99836.69;;;17.32;95.88
11343;BME280;5726;42.160;24.746;2023-05-07T01:14:17;99841.59;;;17.47;94.93
11343;BME280;5726;42.160;24.746;2023-05-07T01:16:43;99834.09;;;17.44;94.42
11343;BME280;5726;42.160;24.746;2023-05-07T01:19:09;99828.28;;;17.17;96.13
11343;BME280;5726;42.160;24.746;2023-05-07T01:21:37;99827.56;;;16.91;98.62
11343;BME280;5726;42.160;24.746;2023-05-07T01:24:04;99828.84;;;16.85;98.35
11343;BME280;5726;42.160;24.746;2023-05-07T01:26:30;99823.56;;;16.97;96.89
11343;BME280;5726;42.160;24.746;2023-05-07T01:28:55;99827.63;;;17.20;93.96
11343;BME280;5726;42.160;24.746;2023-05-07T01:31:21;99824.03;;;16.91;94.91
11343;BME280;5726;42.160;24.746;2023-05-07T01:33:50;99828.66;;;16.82;94.95
11343;BME280;5726;42.160;24.746;2023-05-07T01:36:17;99822.78;;;16.80;95.30
11343;BME280;5726;42.160;24.746;2023-05-07T01:38:44;99828.53;;;16.70;95.09
11343;BME280;5726;42.160;24.746;2023-05-07T01:41:11;99827.69;;;16.86;94.07
11343;BME280;5726;42.160;24.746;2023-05-07T01:43:37;99819.25;;;16.88;93.79
11343;BME280;5726;42.160;24.746;2023-05-07T01:46:03;99819.88;;;16.93;92.90
11343;BME280;5726;42.160;24.746;2023-05-07T01:48:28;99810.41;;;17.16;91.37
11343;BME280;5726;42.160;24.746;2023-05-07T01:50:55;99810.16;;;16.92;92.52
11343;BME280;5726;42.160;24.746;2023-05-07T01:53:20;99818.81;;;16.69;93.61
11343;BME280;5726;42.160;24.746;2023-05-07T01:55:46;99814.84;;;16.75;94.32
11343;BME280;5726;42.160;24.746;2023-05-07T01:58:11;99816.47;;;17.30;92.95
11343;BME280;5726;42.160;24.746;2023-05-07T02:00:37;99813.81;;;17.05;94.79
11343;BME280;5726;42.160;24.746;2023-05-07T02:03:02;99815.91;;;16.91;96.03
11343;BME280;5726;42.160;24.746;2023-05-07T02:05:28;99815.63;;;16.84;96.95
11343;BME280;5726;42.160;24.746;2023-05-07T02:07:53;99813.13;;;17.16;95.39
11343;BME280;5726;42.160;24.746;2023-05-07T02:10:18;99808.66;;;17.20;93.71
11343;BME280;5726;42.160;24.746;2023-05-07T02:12:44;99811.88;;;17.22;94.50
11343;BME280;5726;42.160;24.746;2023-05-07T02:15:10;99817.44;;;17.17;94.36
11343;BME280;5726;42.160;24.746;2023-05-07T02:17:39;99818.88;;;17.15;95.46
11343;BME280;5726;42.160;24.746;2023-05-07T02:20:23;99815.31;;;16.69;99.81
11343;BME280;5726;42.160;24.746;2023-05-07T02:22:48;99818.50;;;16.71;100.00
11343;BME280;5726;42.160;24.746;2023-05-07T02:25:13;99811.75;;;16.93;99.19
11343;BME280;5726;42.160;24.746;2023-05-07T02:27:39;99812.41;;;16.90;99.70
11343;BME280;5726;42.160;24.746;2023-05-07T02:30:05;99813.81;;;17.05;98.92
11343;BME280;5726;42.160;24.746;2023-05-07T02:32:30;99810.28;;;17.21;97.80
11343;BME280;5726;42.160;24.746;2023-05-07T02:34:56;99808.53;;;17.17;97.94
11343;BME280;5726;42.160;24.746;2023-05-07T02:37:21;99805.00;;;17.16;97.67
11343;BME280;5726;42.160;24.746;2023-05-07T02:39:46;99802.63;;;17.23;97.34
11343;BME280;5726;42.160;24.746;2023-05-07T02:42:12;99805.63;;;17.30;96.58
11343;BME280;5726;42.160;24.746;2023-05-07T02:44:37;99806.88;;;17.32;96.92
11343;BME280;5726;42.160;24.746;2023-05-07T02:47:03;99797.97;;;17.32;97.18
11343;BME280;5726;42.160;24.746;2023-05-07T02:49:29;99802.06;;;17.46;96.09
11343;BME280;5726;42.160;24.746;2023-05-07T02:51:54;99805.41;;;17.43;96.62
11343;BME280;5726;42.160;24.746;2023-05-07T02:54:21;99796.38;;;17.31;96.60
11343;BME280;5726;42.160;24.746;2023-05-07T02:56:46;99800.97;;;17.39;96.35
11343;BME280;5726;42.160;24.746;2023-05-07T02:59:11;99798.06;;;17.44;96.25
11343;BME280;5726;42.160;24.746;2023-05-07T03:01:37;99801.56;;;17.44;96.21
11343;BME280;5726;42.160;24.746;2023-05-07T03:04:02;99791.66;;;17.48;96.08
11343;BME280;5726;42.160;24.746;2023-05-07T03:06:27;99796.31;;;17.48;96.76
11343;BME280;5726;42.160;24.746;2023-05-07T03:08:53;99786.13;;;17.45;97.11
11343;BME280;5726;42.160;24.746;2023-05-07T03:11:18;99790.56;;;17.49;96.88
11343;BME280;5726;42.160;24.746;2023-05-07T03:13:44;99790.50;;;17.58;96.44
11343;BME280;5726;42.160;24.746;2023-05-07T03:16:09;99801.00;;;17.59;96.28
11343;BME280;5726;42.160;24.746;2023-05-07T03:18:35;99800.25;;;17.50;97.10
11343;BME280;5726;42.160;24.746;2023-05-07T03:21:00;99797.09;;;17.48;97.42
11343;BME280;5726;42.160;24.746;2023-05-07T03:23:25;99803.63;;;17.47;97.23
11343;BME280;5726;42.160;24.746;2023-05-07T03:25:51;99797.00;;;17.65;96.12
11343;BME280;5726;42.160;24.746;2023-05-07T03:28:16;99797.00;;;17.65;96.28
11343;BME280;5726;42.160;24.746;2023-05-07T03:30:42;99810.63;;;17.85;93.22
11343;BME280;5726;42.160;24.746;2023-05-07T03:33:07;99799.56;;;17.33;96.99
11343;BME280;5726;42.160;24.746;2023-05-07T03:35:32;99805.41;;;17.43;97.27
11343;BME280;5726;42.160;24.746;2023-05-07T03:37:58;99806.22;;;17.72;95.56
11343;BME280;5726;42.160;24.746;2023-05-07T03:40:23;99802.09;;;17.95;92.59
11343;BME280;5726;42.160;24.746;2023-05-07T03:42:49;99808.34;;;18.36;90.55
11343;BME280;5726;42.160;24.746;2023-05-07T03:45:14;99811.34;;;18.23;90.80
11343;BME280;5726;42.160;24.746;2023-05-07T03:47:40;99809.84;;;18.05;92.01
11343;BME280;5726;42.160;24.746;2023-05-07T03:50:06;99807.28;;;18.29;90.58
11343;BME280;5726;42.160;24.746;2023-05-07T03:52:31;99814.06;;;18.43;90.10
11343;BME280;5726;42.160;24.746;2023-05-07T03:54:57;99816.75;;;18.64;88.34
11343;BME280;5726;42.160;24.746;2023-05-07T03:57:22;99816.50;;;18.57;88.83
11343;BME280;5726;42.160;24.746;2023-05-07T03:59:47;99813.84;;;18.68;88.57
11343;BME280;5726;42.160;24.746;2023-05-07T04:02:13;99819.13;;;18.97;86.37
11343;BME280;5726;42.160;24.746;2023-05-07T04:04:38;99813.34;;;19.31;84.57
11343;BME280;5726;42.160;24.746;2023-05-07T04:07:04;99812.25;;;19.56;82.10
11343;BME280;5726;42.160;24.746;2023-05-07T04:09:29;99813.28;;;19.63;81.58
11343;BME280;5726;42.160;24.746;2023-05-07T04:11:55;99814.06;;;19.75;81.25
11343;BME280;5726;42.160;24.746;2023-05-07T04:14:20;99811.78;;;19.54;82.27
11343;BME280;5726;42.160;24.746;2023-05-07T04:16:46;99808.19;;;19.73;82.95
11343;BME280;5726;42.160;24.746;2023-05-07T04:19:11;99815.22;;;19.86;81.48
11343;BME280;5726;42.160;24.746;2023-05-07T04:21:36;99811.00;;;19.77;82.19
11343;BME280;5726;42.160;24.746;2023-05-07T04:24:05;99819.16;;;19.77;80.72
11343;BME280;5726;42.160;24.746;2023-05-07T04:26:30;99826.78;;;19.95;79.59
11343;BME280;5726;42.160;24.746;2023-05-07T04:28:56;99821.31;;;19.83;79.48
11343;BME280;5726;42.160;24.746;2023-05-07T04:31:24;99816.09;;;20.14;78.10
11343;BME280;5726;42.160;24.746;2023-05-07T04:33:50;99816.44;;;20.01;78.13
11343;BME280;5726;42.160;24.746;2023-05-07T04:36:16;99821.47;;;19.87;79.05
11343;BME280;5726;42.160;24.746;2023-05-07T04:38:42;99826.06;;;20.10;78.03
11343;BME280;5726;42.160;24.746;2023-05-07T04:41:08;99829.25;;;20.12;77.49
11343;BME280;5726;42.160;24.746;2023-05-07T04:43:34;99825.13;;;20.30;76.88
11343;BME280;5726;42.160;24.746;2023-05-07T04:46:00;99831.47;;;20.34;76.36
11343;BME280;5726;42.160;24.746;2023-05-07T04:48:25;99824.28;;;20.80;75.01
11343;BME280;5726;42.160;24.746;2023-05-07T04:50:51;99824.00;;;20.70;74.96
11343;BME280;5726;42.160;24.746;2023-05-07T04:53:18;99821.50;;;21.19;72.91
11343;BME280;5726;42.160;24.746;2023-05-07T04:55:44;99829.88;;;21.42;71.21
11343;BME280;5726;42.160;24.746;2023-05-07T04:58:10;99825.22;;;21.73;69.73
11343;BME280;5726;42.160;24.746;2023-05-07T05:00:36;99825.41;;;21.49;69.83
11343;BME280;5726;42.160;24.746;2023-05-07T05:03:01;99828.63;;;21.24;71.43
11343;BME280;5726;42.160;24.746;2023-05-07T05:05:27;99828.34;;;21.44;70.70
11343;BME280;5726;42.160;24.746;2023-05-07T05:07:52;99832.25;;;21.43;69.29
11343;BME280;5726;42.160;24.746;2023-05-07T05:10:18;99830.16;;;20.94;72.99
11343;BME280;5726;42.160;24.746;2023-05-07T05:12:43;99829.09;;;20.99;73.47
11343;BME280;5726;42.160;24.746;2023-05-07T05:15:12;99831.44;;;21.43;70.43
11343;BME280;5726;42.160;24.746;2023-05-07T05:17:38;99826.19;;;21.50;70.64
11343;BME280;5726;42.160;24.746;2023-05-07T05:20:04;99831.81;;;21.87;69.10
11343;BME280;5726;42.160;24.746;2023-05-07T05:22:29;99840.00;;;22.03;68.76
11343;BME280;5726;42.160;24.746;2023-05-07T05:24:56;99838.44;;;21.86;69.13
11343;BME280;5726;42.160;24.746;2023-05-07T05:27:22;99840.97;;;22.44;66.94
11343;BME280;5726;42.160;24.746;2023-05-07T05:29:47;99850.53;;;22.54;66.48
11343;BME280;5726;42.160;24.746;2023-05-07T05:32:13;99844.94;;;22.84;65.01
11343;BME280;5726;42.160;24.746;2023-05-07T05:34:38;99836.13;;;23.32;63.55
11343;BME280;5726;42.160;24.746;2023-05-07T05:37:03;99845.06;;;23.29;63.20
11343;BME280;5726;42.160;24.746;2023-05-07T05:39:29;99852.03;;;23.67;61.98
11343;BME280;5726;42.160;24.746;2023-05-07T05:41:54;99843.72;;;23.42;62.88
11343;BME280;5726;42.160;24.746;2023-05-07T05:44:20;99855.91;;;23.66;62.39
11343;BME280;5726;42.160;24.746;2023-05-07T05:46:45;99850.72;;;23.39;61.99
11343;BME280;5726;42.160;24.746;2023-05-07T05:49:11;99857.59;;;23.74;61.09
11343;BME280;5726;42.160;24.746;2023-05-07T05:51:36;99851.13;;;24.08;59.57
11343;BME280;5726;42.160;24.746;2023-05-07T05:54:02;99861.50;;;23.10;62.08
11343;BME280;5726;42.160;24.746;2023-05-07T05:56:27;99858.56;;;23.41;60.56
11343;BME280;5726;42.160;24.746;2023-05-07T05:58:53;99857.91;;;23.92;57.38
11343;BME280;5726;42.160;24.746;2023-05-07T06:01:18;99848.91;;;24.17;57.47
11343;BME280;5726;42.160;24.746;2023-05-07T06:03:44;99847.53;;;24.04;56.26
11343;BME280;5726;42.160;24.746;2023-05-07T06:06:10;99862.34;;;23.77;58.27
11343;BME280;5726;42.160;24.746;2023-05-07T06:08:35;99856.19;;;24.06;57.56
11343;BME280;5726;42.160;24.746;2023-05-07T06:11:01;99854.75;;;24.41;56.36
11343;BME280;5726;42.160;24.746;2023-05-07T06:13:27;99863.78;;;24.42;56.33
11343;BME280;5726;42.160;24.746;2023-05-07T06:15:53;99861.88;;;24.46;56.01
11343;BME280;5726;42.160;24.746;2023-05-07T06:18:21;99862.28;;;24.77;55.83
11343;BME280;5726;42.160;24.746;2023-05-07T06:20:47;99853.88;;;24.92;55.33
11343;BME280;5726;42.160;24.746;2023-05-07T06:23:13;99855.78;;;25.21;55.00
11343;BME280;5726;42.160;24.746;2023-05-07T06:25:39;99858.41;;;25.50;54.62
11343;BME280;5726;42.160;24.746;2023-05-07T06:28:05;99849.81;;;25.95;53.57
11343;BME280;5726;42.160;24.746;2023-05-07T06:30:31;99853.19;;;25.74;52.96
11343;BME280;5726;42.160;24.746;2023-05-07T06:32:56;99850.41;;;25.71;53.68
11343;BME280;5726;42.160;24.746;2023-05-07T06:35:22;99851.00;;;25.54;53.62
11343;BME280;5726;42.160;24.746;2023-05-07T06:37:47;99845.97;;;25.59;53.25
11343;BME280;5726;42.160;24.746;2023-05-07T06:40:12;99844.66;;;25.86;52.44
11343;BME280;5726;42.160;24.746;2023-05-07T06:42:38;99853.25;;;25.81;51.30
11343;BME280;5726;42.160;24.746;2023-05-07T06:45:04;99846.72;;;25.56;52.64
11343;BME280;5726;42.160;24.746;2023-05-07T06:47:29;99848.75;;;25.63;53.03
11343;BME280;5726;42.160;24.746;2023-05-07T06:49:55;99851.09;;;25.61;52.60
11343;BME280;5726;42.160;24.746;2023-05-07T06:52:20;99852.78;;;25.72;52.05
11343;BME280;5726;42.160;24.746;2023-05-07T06:54:46;99850.16;;;25.86;51.61
11343;BME280;5726;42.160;24.746;2023-05-07T06:57:11;99855.91;;;26.21;52.46
11343;BME280;5726;42.160;24.746;2023-05-07T06:59:36;99859.72;;;26.02;51.99
11343;BME280;5726;42.160;24.746;2023-05-07T07:02:02;99852.91;;;25.86;52.15
11343;BME280;5726;42.160;24.746;2023-05-07T07:04:27;99856.81;;;25.85;51.74
11343;BME280;5726;42.160;24.746;2023-05-07T07:06:53;99856.44;;;25.90;52.06
11343;BME280;5726;42.160;24.746;2023-05-07T07:09:19;99850.84;;;25.76;51.82
11343;BME280;5726;42.160;24.746;2023-05-07T07:11:45;99851.00;;;25.94;51.73
11343;BME280;5726;42.160;24.746;2023-05-07T07:14:10;99850.41;;;26.21;53.17
11343;BME280;5726;42.160;24.746;2023-05-07T07:16:35;99862.50;;;26.66;52.63
11343;BME280;5726;42.160;24.746;2023-05-07T07:19:01;99855.91;;;26.21;51.13
11343;BME280;5726;42.160;24.746;2023-05-07T07:21:26;99860.13;;;26.08;51.09
11343;BME280;5726;42.160;24.746;2023-05-07T07:23:52;99855.75;;;25.57;52.11
11343;BME280;5726;42.160;24.746;2023-05-07T07:26:17;99860.78;;;25.51;52.59
11343;BME280;5726;42.160;24.746;2023-05-07T07:28:46;99857.75;;;25.60;52.83
11343;BME280;5726;42.160;24.746;2023-05-07T07:31:12;99861.09;;;25.83;52.14
11343;BME280;5726;42.160;24.746;2023-05-07T07:33:37;99861.06;;;25.76;52.75
11343;BME280;5726;42.160;24.746;2023-05-07T07:36:04;99872.19;;;25.93;51.54
11343;BME280;5726;42.160;24.746;2023-05-07T07:38:30;99858.69;;;25.74;51.54
11343;BME280;5726;42.160;24.746;2023-05-07T07:40:55;99859.97;;;25.87;52.04
11343;BME280;5726;42.160;24.746;2023-05-07T07:43:21;99859.03;;;26.23;53.96
11343;BME280;5726;42.160;24.746;2023-05-07T07:45:46;99861.19;;;26.47;50.77
11343;BME280;5726;42.160;24.746;2023-05-07T07:48:12;99860.03;;;26.48;51.51
11343;BME280;5726;42.160;24.746;2023-05-07T07:50:38;99860.47;;;26.53;51.42
11343;BME280;5726;42.160;24.746;2023-05-07T07:53:03;99866.66;;;26.40;50.97
11343;BME280;5726;42.160;24.746;2023-05-07T07:55:29;99872.31;;;26.07;51.17
11343;BME280;5726;42.160;24.746;2023-05-07T07:57:54;99867.91;;;25.99;51.61
11343;BME280;5726;42.160;24.746;2023-05-07T08:00:20;99871.63;;;25.74;51.47
11343;BME280;5726;42.160;24.746;2023-05-07T08:02:45;99872.13;;;25.47;52.03
11343;BME280;5726;42.160;24.746;2023-05-07T08:05:10;99872.84;;;25.80;51.73
11343;BME280;5726;42.160;24.746;2023-05-07T08:07:36;99866.56;;;25.79;52.69
11343;BME280;5726;42.160;24.746;2023-05-07T08:10:01;99873.13;;;25.64;53.35
11343;BME280;5726;42.160;24.746;2023-05-07T08:12:27;99859.75;;;25.23;53.87
11343;BME280;5726;42.160;24.746;2023-05-07T08:14:53;99859.41;;;25.68;52.83
11343;BME280;5726;42.160;24.746;2023-05-07T08:17:18;99864.75;;;25.54;53.50
11343;BME280;5726;42.160;24.746;2023-05-07T08:19:44;99848.16;;;25.44;52.87
11343;BME280;5726;42.160;24.746;2023-05-07T08:22:09;99851.31;;;25.06;53.76
11343;BME280;5726;42.160;24.746;2023-05-07T08:24:36;99849.91;;;25.19;53.62
11343;BME280;5726;42.160;24.746;2023-05-07T08:27:01;99849.31;;;25.03;53.35
11343;BME280;5726;42.160;24.746;2023-05-07T08:29:27;99849.19;;;24.96;53.09
11343;BME280;5726;42.160;24.746;2023-05-07T08:31:52;99847.63;;;25.28;51.65
11343;BME280;5726;42.160;24.746;2023-05-07T08:34:18;99851.88;;;25.22;52.18
11343;BME280;5726;42.160;24.746;2023-05-07T08:36:43;99838.44;;;25.53;51.90
11343;BME280;5726;42.160;24.746;2023-05-07T08:39:09;99834.69;;;25.68;51.08
11343;BME280;5726;42.160;24.746;2023-05-07T08:41:34;99838.41;;;25.46;52.60
11343;BME280;5726;42.160;24.746;2023-05-07T08:44:02;99840.22;;;25.32;53.80
11343;BME280;5726;42.160;24.746;2023-05-07T08:46:31;99821.75;;;25.29;53.93
11343;BME280;5726;42.160;24.746;2023-05-07T08:48:57;99843.16;;;25.13;52.75
11343;BME280;5726;42.160;24.746;2023-05-07T08:51:22;99832.47;;;24.75;53.64
11343;BME280;5726;42.160;24.746;2023-05-07T08:53:49;99830.19;;;25.10;52.41
11343;BME280;5726;42.160;24.746;2023-05-07T08:56:16;99829.19;;;24.92;52.10
11343;BME280;5726;42.160;24.746;2023-05-07T08:58:43;99832.66;;;24.89;51.61
11343;BME280;5726;42.160;24.746;2023-05-07T09:01:13;99827.06;;;24.79;51.73
11343;BME280;5726;42.160;24.746;2023-05-07T09:03:38;99817.22;;;24.74;53.19
11343;BME280;5726;42.160;24.746;2023-05-07T09:06:04;99817.25;;;25.10;52.03
11343;BME280;5726;42.160;24.746;2023-05-07T09:08:32;99833.84;;;24.92;52.23
11343;BME280;5726;42.160;24.746;2023-05-07T09:10:58;99822.63;;;25.00;52.90
11343;BME280;5726;42.160;24.746;2023-05-07T09:13:23;99820.00;;;25.10;50.45
11343;BME280;5726;42.160;24.746;2023-05-07T09:15:49;99822.56;;;24.97;50.05
11343;BME280;5726;42.160;24.746;2023-05-07T09:18:14;99824.59;;;24.70;51.06
11343;BME280;5726;42.160;24.746;2023-05-07T09:20:40;99822.44;;;24.86;50.02
11343;BME280;5726;42.160;24.746;2023-05-07T09:23:07;99813.63;;;24.70;50.33
11343;BME280;5726;42.160;24.746;2023-05-07T09:25:33;99815.63;;;24.73;50.24
11343;BME280;5726;42.160;24.746;2023-05-07T09:28:00;99816.13;;;24.82;49.63
11343;BME280;5726;42.160;24.746;2023-05-07T09:30:29;99818.13;;;24.85;48.26
11343;BME280;5726;42.160;24.746;2023-05-07T09:32:57;99814.25;;;24.57;46.87
11343;BME280;5726;42.160;24.746;2023-05-07T09:35:23;99810.50;;;24.72;45.99
11343;BME280;5726;42.160;24.746;2023-05-07T09:37:55;99806.03;;;24.60;46.02
11343;BME280;5726;42.160;24.746;2023-05-07T09:40:24;99798.03;;;24.78;45.56
11343;BME280;5726;42.160;24.746;2023-05-07T09:42:50;99796.63;;;24.58;46.53
11343;BME280;5726;42.160;24.746;2023-05-07T09:45:21;99803.25;;;24.53;46.42
11343;BME280;5726;42.160;24.746;2023-05-07T09:47:48;99789.75;;;24.16;47.83
11343;BME280;5726;42.160;24.746;2023-05-07T09:50:16;99804.16;;;24.35;47.20
11343;BME280;5726;42.160;24.746;2023-05-07T09:52:43;99788.91;;;24.38;47.51
11343;BME280;5726;42.160;24.746;2023-05-07T09:55:10;99795.25;;;24.42;47.52
11343;BME280;5726;42.160;24.746;2023-05-07T09:57:38;99789.94;;;24.55;47.08
11343;BME280;5726;42.160;24.746;2023-05-07T10:00:05;99777.19;;;24.70;47.48
11343;BME280;5726;42.160;24.746;2023-05-07T10:02:35;99773.06;;;24.53;47.17
11343;BME280;5726;42.160;24.746;2023-05-07T10:05:01;99787.97;;;24.27;48.91
11343;BME280;5726;42.160;24.746;2023-05-07T10:07:27;99780.34;;;24.13;50.01
11343;BME280;5726;42.160;24.746;2023-05-07T10:09:53;99772.13;;;23.88;49.22
11343;BME280;5726;42.160;24.746;2023-05-07T10:12:19;99774.56;;;24.22;49.21
11343;BME280;5726;42.160;24.746;2023-05-07T10:14:45;99782.50;;;24.27;48.67
11343;BME280;5726;42.160;24.746;2023-05-07T10:17:11;99761.59;;;24.19;48.95
11343;BME280;5726;42.160;24.746;2023-05-07T10:19:37;99764.78;;;24.50;48.60
11343;BME280;5726;42.160;24.746;2023-05-07T10:22:05;99759.84;;;24.04;50.05
11343;BME280;5726;42.160;24.746;2023-05-07T10:24:35;99755.47;;;24.00;49.67
11343;BME280;5726;42.160;24.746;2023-05-07T10:27:05;99752.28;;;23.94;49.84
11343;BME280;5726;42.160;24.746;2023-05-07T10:29:39;99750.19;;;24.13;49.36
11343;BME280;5726;42.160;24.746;2023-05-07T10:34:47;99741.84;;;24.03;48.96
11343;BME280;5726;42.160;24.746;2023-05-07T10:37:14;99749.69;;;24.34;49.21
11343;BME280;5726;42.160;24.746;2023-05-07T10:39:40;99741.50;;;24.08;48.39
11343;BME280;5726;42.160;24.746;2023-05-07T10:42:13;99736.00;;;24.04;48.12
11343;BME280;5726;42.160;24.746;2023-05-07T10:44:39;99735.47;;;24.25;47.65
11343;BME280;5726;42.160;24.746;2023-05-07T10:52:17;99742.44;;;24.19;46.16
11343;BME280;5726;42.160;24.746;2023-05-07T10:54:44;99724.31;;;24.11;46.70
11343;BME280;5726;42.160;24.746;2023-05-07T10:59:57;99731.69;;;24.33;45.91
11343;BME280;5726;42.160;24.746;2023-05-07T11:02:23;99750.34;;;24.24;46.03
11343;BME280;5726;42.160;24.746;2023-05-07T11:05:23;99722.94;;;24.24;45.73
11343;BME280;5726;42.160;24.746;2023-05-07T11:07:59;99718.13;;;24.43;46.19
11343;BME280;5726;42.160;24.746;2023-05-07T11:13:45;99725.97;;;24.81;45.51
11343;BME280;5726;42.160;24.746;2023-05-07T11:16:24;99702.00;;;24.74;45.97
11343;BME280;5726;42.160;24.746;2023-05-07T11:18:55;99700.81;;;24.75;45.56
11343;BME280;5726;42.160;24.746;2023-05-07T11:21:41;99705.13;;;24.73;45.23
11343;BME280;5726;42.160;24.746;2023-05-07T11:24:10;99709.59;;;24.88;44.89
11343;BME280;5726;42.160;24.746;2023-05-07T11:29:17;99698.53;;;24.45;45.04
11343;BME280;5726;42.160;24.746;2023-05-07T11:31:43;99699.69;;;24.44;44.90
11343;BME280;5726;42.160;24.746;2023-05-07T11:34:09;99700.53;;;24.48;45.10
11343;BME280;5726;42.160;24.746;2023-05-07T11:36:36;99691.63;;;24.57;45.37
11343;BME280;5726;42.160;24.746;2023-05-07T11:39:23;99704.78;;;24.81;44.06
11343;BME280;5726;42.160;24.746;2023-05-07T11:41:48;99693.59;;;24.97;44.60
11343;BME280;5726;42.160;24.746;2023-05-07T11:44:14;99693.59;;;24.57;43.93
11343;BME280;5726;42.160;24.746;2023-05-07T11:46:43;99706.09;;;24.54;44.42
11343;BME280;5726;42.160;24.746;2023-05-07T11:49:09;99695.41;;;24.13;44.76
11343;BME280;5726;42.160;24.746;2023-05-07T11:51:35;99701.53;;;24.33;45.54
11343;BME280;5726;42.160;24.746;2023-05-07T11:54:03;99700.78;;;24.72;45.50
11343;BME280;5726;42.160;24.746;2023-05-07T11:56:34;99701.22;;;24.41;45.59
11343;BME280;5726;42.160;24.746;2023-05-07T11:59:00;99688.94;;;24.61;45.39
11343;BME280;5726;42.160;24.746;2023-05-07T12:01:35;99684.22;;;24.61;45.24
11343;BME280;5726;42.160;24.746;2023-05-07T12:04:03;99676.41;;;24.63;45.64
11343;BME280;5726;42.160;24.746;2023-05-07T12:06:29;99682.59;;;24.53;46.24
11343;BME280;5726;42.160;24.746;2023-05-07T12:08:55;99686.72;;;24.77;44.61
11343;BME280;5726;42.160;24.746;2023-05-07T12:11:24;99685.28;;;24.86;44.15
11343;BME280;5726;42.160;24.746;2023-05-07T12:13:51;99680.25;;;24.95;46.30
11343;BME280;5726;42.160;24.746;2023-05-07T12:16:17;99683.13;;;24.69;43.65
11343;BME280;5726;42.160;24.746;2023-05-07T12:18:43;99683.38;;;24.57;45.27
11343;BME280;5726;42.160;24.746;2023-05-07T12:21:09;99668.72;;;24.76;44.81
11343;BME280;5726;42.160;24.746;2023-05-07T12:23:36;99663.72;;;24.49;44.49
11343;BME280;5726;42.160;24.746;2023-05-07T12:26:02;99669.53;;;24.44;45.28
11343;BME280;5726;42.160;24.746;2023-05-07T12:28:28;99671.28;;;24.58;45.22
11343;BME280;5726;42.160;24.746;2023-05-07T12:30:54;99662.28;;;24.61;45.58
11343;BME280;5726;42.160;24.746;2023-05-07T12:33:25;99651.78;;;24.67;45.95
11343;BME280;5726;42.160;24.746;2023-05-07T12:35:50;99651.25;;;24.54;46.43
11343;BME280;5726;42.160;24.746;2023-05-07T12:38:18;99644.69;;;24.62;45.14
11343;BME280;5726;42.160;24.746;2023-05-07T12:40:48;99645.09;;;24.64;46.11
11343;BME280;5726;42.160;24.746;2023-05-07T12:43:27;99643.56;;;24.70;45.11
11343;BME280;5726;42.160;24.746;2023-05-07T12:45:55;99653.09;;;24.83;45.36
11343;BME280;5726;42.160;24.746;2023-05-07T12:48:21;99658.13;;;24.74;45.27
11343;BME280;5726;42.160;24.746;2023-05-07T12:50:51;99650.97;;;24.66;45.38
11343;BME280;5726;42.160;24.746;2023-05-07T12:53:20;99659.28;;;24.73;45.52
11343;BME280;5726;42.160;24.746;2023-05-07T12:55:47;99637.34;;;24.77;44.77
11343;BME280;5726;42.160;24.746;2023-05-07T13:00:41;99622.66;;;24.99;44.75
11343;BME280;5726;42.160;24.746;2023-05-07T13:03:08;99624.16;;;24.93;43.86
11343;BME280;5726;42.160;24.746;2023-05-07T13:05:34;99631.19;;;24.87;44.87
11343;BME280;5726;42.160;24.746;2023-05-07T13:08:00;99627.94;;;24.74;44.34
11343;BME280;5726;42.160;24.746;2023-05-07T13:10:26;99620.94;;;24.80;44.25
11343;BME280;5726;42.160;24.746;2023-05-07T13:12:52;99616.78;;;24.53;45.56
11343;BME280;5726;42.160;24.746;2023-05-07T13:15:18;99617.53;;;24.51;46.13